Terminal Aerodrome Forecast
Issued by NWS Louisville, KY

Home | Current Version | Previous Version | Text Only | Print | Product List | Glossary On
Versions: 1 2 3 4 5 6 7 8 9 10 11 12 13 14 15
000
FTUS43 KLMK 272323
TAFLEX
TAF
KLEX 272323Z 2800/2824 20006KT P6SM SKC
     FM281100 20010KT P6SM SCT050 BKN200
     FM281800 22012G18KT P6SM VCSH BKN040
     FM282000 27010KT 5SM -SHRA BKN022=

USA.gov is the U.S. government's official web portal to all federal, state and local government web resources and services.